createdAt,value
2019-02-05T00:00:06.692Z,4.47
2019-02-05T00:01:06.441Z,4.52
2019-02-05T00:02:06.887Z,4.37
2019-02-05T00:03:06.615Z,4.42
2019-02-05T00:04:06.850Z,4.39
2019-02-05T00:05:06.920Z,4.32
2019-02-05T00:06:06.807Z,4.25
2019-02-05T00:07:06.634Z,4.32
2019-02-05T00:08:06.761Z,4.1
2019-02-05T00:09:06.729Z,4.22
2019-02-05T00:10:06.196Z,4.24
2019-02-05T00:11:06.176Z,4.18
2019-02-05T00:12:06.409Z,4.1
2019-02-05T00:13:07.275Z,4.22
2019-02-05T00:14:06.627Z,4.12
2019-02-05T00:15:06.607Z,4.14
2019-02-05T00:16:06.591Z,4.24
2019-02-05T00:17:06.552Z,4.18
2019-02-05T00:18:06.273Z,4.21
2019-02-05T00:19:06.526Z,4.22
2019-02-05T00:20:06.488Z,4.25
2019-02-05T00:21:07.168Z,4.1
2019-02-05T00:22:06.189Z,4.12
2019-02-05T00:23:05.917Z,4.16
2019-02-05T00:24:06.404Z,4.16
2019-02-05T00:25:06.375Z,4.1
2019-02-05T00:26:11.170Z,4.15
2019-02-05T00:27:06.333Z,4.16
2019-02-05T00:28:05.967Z,4.14
2019-02-05T00:29:05.795Z,4.08
2019-02-05T00:30:06.029Z,4.04
2019-02-05T00:31:06.110Z,4.03
2019-02-05T00:32:06.236Z,4.06
2019-02-05T00:33:05.702Z,4.08
2019-02-05T00:34:06.171Z,4.12
2019-02-05T00:35:06.155Z,4.08
2019-02-05T00:36:06.399Z,4.07
2019-02-05T00:37:05.598Z,4.07
2019-02-05T00:38:05.833Z,4.1
2019-02-05T00:39:06.069Z,3.98
2019-02-05T00:40:05.777Z,4.07
2019-02-05T00:41:05.786Z,4.04
2019-02-05T00:42:06.000Z,4.08
2019-02-05T00:43:06.113Z,4.06
2019-02-05T00:44:06.309Z,4.04
2019-02-05T00:45:06.006Z,4.04
2019-02-05T00:46:05.951Z,4
2019-02-05T00:47:05.381Z,4
2019-02-05T00:48:05.872Z,3.97
2019-02-05T00:49:05.597Z,3.94
2019-02-05T00:50:05.827Z,3.88
2019-02-05T00:51:05.304Z,3.86
2019-02-05T00:52:05.916Z,3.88
2019-02-05T00:53:05.254Z,3.83
2019-02-05T00:54:05.642Z,3.83
2019-02-05T00:55:05.479Z,3.79
2019-02-05T00:56:17.058Z,3.72
2019-02-05T00:57:05.445Z,3.79
2019-02-05T00:58:05.664Z,3.76
2019-02-05T00:59:05.735Z,3.7
2019-02-05T01:00:05.817Z,3.71
2019-02-05T01:01:05.071Z,3.78
2019-02-05T01:02:05.551Z,3.76
2019-02-05T01:03:05.620Z,3.68
2019-02-05T01:04:05.266Z,3.67
2019-02-05T01:05:05.501Z,3.64
2019-02-05T01:06:04.959Z,3.57
2019-02-05T01:07:05.700Z,3.61
2019-02-05T01:08:05.419Z,3.61
2019-02-05T01:09:05.392Z,3.58
2019-02-05T01:10:05.385Z,3.6
2019-02-05T01:11:05.109Z,3.54
2019-02-05T01:12:05.330Z,3.6
2019-02-05T01:13:05.055Z,3.62
2019-02-05T01:14:05.291Z,3.62
2019-02-05T01:15:05.879Z,3.57
2019-02-05T01:16:05.239Z,3.61
2019-02-05T01:17:05.168Z,3.58
2019-02-05T01:18:05.238Z,3.58
2019-02-05T01:19:04.944Z,3.5
2019-02-05T01:20:05.205Z,3.58
2019-02-05T01:21:04.884Z,3.5
2019-02-05T01:22:05.115Z,3.54
2019-02-05T01:23:05.430Z,3.57
2019-02-05T01:24:04.856Z,3.54
2019-02-05T01:25:05.246Z,3.61
2019-02-05T01:26:04.765Z,3.6
2019-02-05T01:27:04.747Z,3.52
2019-02-05T01:28:04.731Z,3.54
2019-02-05T01:29:04.707Z,3.49
2019-02-05T01:30:05.181Z,3.52
2019-02-05T01:31:05.602Z,3.5
2019-02-05T01:32:04.640Z,3.54
2019-02-05T01:33:04.904Z,3.49
2019-02-05T01:34:04.854Z,3.49
2019-02-05T01:35:04.951Z,3.54
2019-02-05T01:36:04.293Z,3.54
2019-02-05T01:37:04.517Z,3.49
2019-02-05T01:38:04.484Z,3.52
2019-02-05T01:39:04.488Z,3.49
2019-02-05T01:40:04.721Z,3.44
2019-02-05T01:41:04.699Z,3.44
2019-02-05T01:42:04.409Z,3.5
2019-02-05T01:43:04.397Z,3.49
2019-02-05T01:44:04.622Z,3.47
2019-02-05T01:45:04.427Z,3.46
2019-02-05T01:46:04.839Z,3.47
2019-02-05T01:47:04.333Z,3.43
2019-02-05T01:48:04.016Z,3.46
2019-02-05T01:49:04.060Z,3.43
2019-02-05T01:50:04.260Z,3.42
2019-02-05T01:51:04.460Z,3.34
2019-02-05T01:52:04.449Z,3.42
2019-02-05T01:53:04.510Z,3.42
2019-02-05T01:54:04.792Z,3.42
2019-02-05T01:55:04.492Z,3.4
2019-02-05T01:56:04.337Z,3.42
2019-02-05T01:57:04.333Z,3.34
2019-02-05T01:58:04.049Z,3.33
2019-02-05T01:59:04.031Z,3.34
2019-02-05T02:00:04.266Z,3.36
2019-02-05T02:01:03.988Z,3.42
2019-02-05T02:02:04.342Z,3.31
2019-02-05T02:03:03.940Z,3.23
2019-02-05T02:04:03.920Z,3.31
2019-02-05T02:05:04.151Z,3.27
2019-02-05T02:06:03.865Z,3.42
2019-02-05T02:07:04.114Z,3.3
2019-02-05T02:08:04.078Z,3.42
2019-02-05T02:09:04.015Z,3.42
2019-02-05T02:10:03.786Z,3.36
2019-02-05T02:11:03.759Z,3.27
2019-02-05T02:12:03.734Z,3.42
2019-02-05T02:13:03.966Z,3.39
2019-02-05T02:14:03.948Z,3.44
2019-02-05T02:15:03.684Z,3.34
2019-02-05T02:16:03.901Z,3.36
2019-02-05T02:17:04.490Z,3.25
2019-02-05T02:18:03.851Z,3.28
2019-02-05T02:19:03.577Z,3.27
2019-02-05T02:20:03.809Z,3.3
2019-02-05T02:21:03.795Z,3.4
2019-02-05T02:22:03.767Z,3.31
2019-02-05T02:23:03.248Z,3.34
2019-02-05T02:24:03.212Z,3.31
2019-02-05T02:25:03.772Z,3.42
2019-02-05T02:26:03.428Z,3.33
2019-02-05T02:27:03.455Z,3.39
2019-02-05T02:28:03.633Z,3.4
2019-02-05T02:29:03.375Z,3.34
2019-02-05T02:30:03.596Z,3.43
2019-02-05T02:31:03.319Z,3.39
2019-02-05T02:32:03.425Z,3.42
2019-02-05T02:33:03.289Z,3.36
2019-02-05T02:34:03.542Z,3.42
2019-02-05T02:35:03.227Z,3.43
2019-02-05T02:36:03.455Z,3.43
2019-02-05T02:37:03.178Z,3.42
2019-02-05T02:38:03.421Z,3.36
2019-02-05T02:39:03.170Z,3.42
2019-02-05T02:40:03.984Z,3.43
2019-02-05T02:41:03.156Z,3.4
2019-02-05T02:42:03.325Z,3.42
2019-02-05T02:43:03.291Z,3.53
2019-02-05T02:44:03.286Z,3.43
2019-02-05T02:45:03.060Z,3.42
2019-02-05T02:46:02.976Z,3.43
2019-02-05T02:47:03.228Z,3.53
2019-02-05T02:48:03.731Z,3.43
2019-02-05T02:49:03.163Z,3.4
2019-02-05T02:50:03.210Z,3.4
2019-02-05T02:51:02.902Z,3.43
2019-02-05T02:52:02.838Z,3.42
2019-02-05T02:53:03.084Z,3.47
2019-02-05T02:54:03.058Z,3.42
2019-02-05T02:55:03.139Z,3.49
2019-02-05T02:56:03.409Z,3.43
2019-02-05T02:57:09.647Z,3.49
2019-02-05T02:58:02.991Z,3.47
2019-02-05T02:59:02.687Z,3.47
2019-02-05T03:00:02.761Z,3.49
2019-02-05T03:01:02.713Z,3.5
2019-02-05T03:02:02.438Z,3.47
2019-02-05T03:03:03.189Z,3.43
2019-02-05T03:04:02.604Z,3.43
2019-02-05T03:05:02.572Z,3.47
2019-02-05T03:06:02.790Z,3.49
2019-02-05T03:07:02.516Z,3.52
2019-02-05T03:08:02.502Z,3.49
2019-02-05T03:09:02.730Z,3.5
2019-02-05T03:10:02.701Z,3.46
2019-02-05T03:11:02.681Z,3.47
2019-02-05T03:12:02.655Z,3.43
2019-02-05T03:13:02.640Z,3.49
2019-02-05T03:14:02.611Z,3.49
2019-02-05T03:15:02.341Z,3.57
2019-02-05T03:16:02.188Z,3.57
2019-02-05T03:17:02.692Z,3.58
2019-02-05T03:18:02.600Z,3.6
2019-02-05T03:19:02.259Z,3.61
2019-02-05T03:20:02.488Z,3.61
2019-02-05T03:21:02.210Z,3.62
2019-02-05T03:22:02.184Z,3.54
2019-02-05T03:23:02.440Z,3.62
2019-02-05T03:24:02.288Z,3.54
2019-02-05T03:25:02.363Z,3.52
2019-02-05T03:26:01.836Z,3.62
2019-02-05T03:27:02.333Z,3.61
2019-02-05T03:28:02.303Z,3.61
2019-02-05T03:29:02.057Z,3.64
2019-02-05T03:30:02.027Z,3.57
2019-02-05T03:31:02.072Z,3.58
2019-02-05T03:32:01.862Z,3.58
2019-02-05T03:33:02.274Z,3.72
2019-02-05T03:34:01.918Z,3.67
2019-02-05T03:35:01.880Z,3.64
2019-02-05T03:36:01.629Z,3.67
2019-02-05T03:37:01.843Z,3.65
2019-02-05T03:38:02.094Z,3.72
2019-02-05T03:39:02.367Z,3.65
2019-02-05T03:40:01.806Z,3.65
2019-02-05T03:41:01.759Z,3.65
2019-02-05T03:42:02.086Z,3.64
2019-02-05T03:43:01.453Z,3.78
2019-02-05T03:44:01.973Z,3.68
2019-02-05T03:45:01.669Z,3.67
2019-02-05T03:46:01.842Z,3.6
2019-02-05T03:47:01.631Z,3.65
2019-02-05T03:48:01.870Z,3.76
2019-02-05T03:49:01.847Z,3.76
2019-02-05T03:50:01.311Z,3.72
2019-02-05T03:51:01.539Z,3.76
2019-02-05T03:52:01.764Z,3.78
2019-02-05T03:53:01.493Z,3.71
2019-02-05T03:54:01.990Z,3.78
2019-02-05T03:55:01.711Z,3.72
2019-02-05T03:56:01.692Z,3.71
2019-02-05T03:57:01.654Z,3.72
2019-02-05T03:58:01.626Z,3.76
2019-02-05T03:59:01.361Z,3.72
2019-02-05T04:00:01.339Z,3.78
2019-02-05T04:01:01.860Z,3.68
2019-02-05T04:02:01.282Z,3.72
2019-02-05T04:03:01.516Z,3.67
2019-02-05T04:04:01.496Z,3.72
2019-02-05T04:05:01.474Z,3.82
2019-02-05T04:06:01.453Z,3.76
2019-02-05T04:07:01.190Z,3.78
2019-02-05T04:08:01.157Z,3.7
2019-02-05T04:09:01.381Z,3.72
2019-02-05T04:10:00.882Z,3.72
2019-02-05T04:11:00.844Z,3.76
2019-02-05T04:12:03.884Z,3.8
2019-02-05T04:13:01.301Z,3.72
2019-02-05T04:14:01.016Z,3.72
2019-02-05T04:15:01.299Z,3.82
2019-02-05T04:16:01.239Z,3.79
2019-02-05T04:17:01.133Z,3.75
2019-02-05T04:18:00.701Z,3.79
2019-02-05T04:19:01.164Z,3.79
2019-02-05T04:20:01.147Z,3.71
2019-02-05T04:21:01.119Z,3.72
2019-02-05T04:22:01.150Z,3.79
2019-02-05T04:23:01.092Z,3.83
2019-02-05T04:24:00.999Z,3.76
2019-02-05T04:25:00.605Z,3.88
2019-02-05T04:26:00.755Z,3.82
2019-02-05T04:27:00.758Z,3.89
2019-02-05T04:28:00.714Z,3.88
2019-02-05T04:29:00.686Z,3.86
2019-02-05T04:30:00.928Z,3.85
2019-02-05T04:31:00.898Z,3.89
2019-02-05T04:32:01.468Z,3.88
2019-02-05T04:33:00.609Z,3.86
2019-02-05T04:34:00.669Z,3.8
2019-02-05T04:35:00.566Z,3.86
2019-02-05T04:36:00.538Z,3.85
2019-02-05T04:37:02.282Z,3.82
2019-02-05T04:38:00.245Z,3.82
2019-02-05T04:39:00.739Z,3.89
2019-02-05T04:40:01.084Z,3.8
2019-02-05T04:41:00.782Z,3.88
2019-02-05T04:42:00.708Z,3.86
2019-02-05T04:43:00.382Z,3.89
2019-02-05T04:44:00.377Z,3.94
2019-02-05T04:45:00.589Z,3.89
2019-02-05T04:46:00.309Z,3.85
2019-02-05T04:47:00.863Z,3.89
2019-02-05T04:48:00.539Z,3.92
2019-02-05T04:49:00.497Z,3.88
2019-02-05T04:50:00.258Z,3.86
2019-02-05T04:51:00.205Z,3.88
2019-02-05T04:52:00.429Z,3.89
2019-02-05T04:53:00.191Z,3.9
2019-02-05T04:54:00.406Z,3.89
2019-02-05T04:55:00.439Z,3.89
2019-02-05T04:55:59.843Z,3.89
2019-02-05T04:56:59.826Z,3.88
2019-02-05T04:58:05.361Z,3.92
2019-02-05T04:59:00.295Z,3.88
2019-02-05T05:00:00.005Z,3.89
2019-02-05T05:00:59.986Z,3.9
2019-02-05T05:01:59.975Z,3.9
2019-02-05T05:03:00.479Z,3.94
2019-02-05T05:03:59.659Z,3.94
2019-02-05T05:04:59.893Z,3.96
2019-02-05T05:06:00.140Z,3.94
2019-02-05T05:07:00.151Z,3.9
2019-02-05T05:08:00.084Z,3.96
2019-02-05T05:09:00.156Z,3.97
2019-02-05T05:10:00.484Z,3.97
2019-02-05T05:11:00.024Z,3.96
2019-02-05T05:11:59.997Z,3.97
2019-02-05T05:12:59.716Z,3.97
2019-02-05T05:13:59.461Z,3.98
2019-02-05T05:14:59.954Z,3.97
2019-02-05T05:15:59.893Z,3.98
2019-02-05T05:17:00.098Z,3.98
2019-02-05T05:18:00.233Z,4
2019-02-05T05:18:59.577Z,3.97
2019-02-05T05:19:59.815Z,3.97
2019-02-05T05:20:59.577Z,4.04
2019-02-05T05:21:59.781Z,3.98
2019-02-05T05:22:59.363Z,3.97
2019-02-05T05:23:59.478Z,4
2019-02-05T05:25:00.371Z,4.03
2019-02-05T05:25:59.462Z,3.98
2019-02-05T05:26:59.664Z,4
2019-02-05T05:28:12.036Z,4
2019-02-05T05:28:59.115Z,4
2019-02-05T05:29:59.343Z,3.97
2019-02-05T05:30:59.327Z,3.98
2019-02-05T05:31:59.198Z,3.98
2019-02-05T05:32:59.275Z,4.01
2019-02-05T05:33:59.007Z,3.98
2019-02-05T05:34:59.494Z,4.04
2019-02-05T05:35:59.475Z,3.98
2019-02-05T05:36:59.057Z,4.01
2019-02-05T05:37:59.463Z,4.06
2019-02-05T05:38:59.154Z,4.04
2019-02-05T05:40:00.391Z,4.01
2019-02-05T05:40:59.353Z,4.01
2019-02-05T05:41:59.191Z,4.06
2019-02-05T05:42:59.055Z,3.97
2019-02-05T05:43:58.776Z,3.98
2019-02-05T05:44:59.023Z,4
2019-02-05T05:45:59.252Z,4.04
2019-02-05T05:46:59.610Z,4
2019-02-05T05:47:59.208Z,3.98
2019-02-05T05:48:59.181Z,3.97
2019-02-05T05:49:59.165Z,4
2019-02-05T05:50:58.621Z,4.03
2019-02-05T05:51:59.111Z,3.96
2019-02-05T05:52:58.861Z,4
2019-02-05T05:53:58.822Z,3.97
2019-02-05T05:54:59.201Z,3.94
2019-02-05T05:55:59.011Z,3.97
2019-02-05T05:56:58.743Z,3.96
2019-02-05T05:57:58.736Z,3.83
2019-02-05T05:58:58.955Z,3.94
2019-02-05T05:59:58.969Z,3.96
2019-02-05T06:00:58.907Z,3.88
2019-02-05T06:01:59.007Z,3.89
2019-02-05T06:02:58.657Z,3.94
2019-02-05T06:03:58.833Z,3.89
2019-02-05T06:04:58.322Z,3.92
2019-02-05T06:05:58.810Z,3.88
2019-02-05T06:06:58.774Z,3.83
2019-02-05T06:07:58.506Z,3.85
2019-02-05T06:08:58.411Z,3.88
2019-02-05T06:09:58.853Z,3.88
2019-02-05T06:10:58.435Z,3.86
2019-02-05T06:11:58.152Z,3.83
2019-02-05T06:12:58.391Z,3.86
2019-02-05T06:13:58.115Z,3.85
2019-02-05T06:14:58.616Z,3.89
2019-02-05T06:15:58.340Z,3.88
2019-02-05T06:16:58.848Z,3.9
2019-02-05T06:17:58.313Z,3.89
2019-02-05T06:18:58.268Z,3.85
2019-02-05T06:19:58.247Z,3.79
2019-02-05T06:20:58.317Z,3.85
2019-02-05T06:21:58.221Z,3.9
2019-02-05T06:22:58.535Z,3.9
2019-02-05T06:23:58.407Z,3.88
2019-02-05T06:24:58.126Z,3.96
2019-02-05T06:25:58.362Z,3.92
2019-02-05T06:26:58.085Z,3.9
2019-02-05T06:27:58.066Z,3.85
2019-02-05T06:28:58.288Z,3.85
2019-02-05T06:29:58.277Z,3.85
2019-02-05T06:30:58.256Z,3.85
2019-02-05T06:31:58.622Z,3.83
2019-02-05T06:32:57.956Z,3.9
2019-02-05T06:33:58.185Z,3.86
2019-02-05T06:34:57.651Z,3.82
2019-02-05T06:35:57.878Z,3.89
2019-02-05T06:36:58.125Z,3.82
2019-02-05T06:37:57.828Z,3.83
2019-02-05T06:38:57.745Z,3.83
2019-02-05T06:39:58.055Z,3.83
2019-02-05T06:40:58.045Z,3.92
2019-02-05T06:41:58.006Z,3.88
2019-02-05T06:42:57.982Z,3.92
2019-02-05T06:43:57.694Z,3.85
2019-02-05T06:44:57.439Z,3.92
2019-02-05T06:45:57.406Z,3.88
2019-02-05T06:46:57.962Z,3.9
2019-02-05T06:47:57.612Z,3.88
2019-02-05T06:48:57.365Z,3.86
2019-02-05T06:49:57.819Z,3.9
2019-02-05T06:50:59.407Z,3.92
2019-02-05T06:51:57.272Z,3.94
2019-02-05T06:52:57.765Z,3.92
2019-02-05T06:53:58.220Z,3.96
2019-02-05T06:54:57.709Z,3.9
2019-02-05T06:55:57.434Z,3.86
2019-02-05T06:56:57.686Z,3.85
2019-02-05T06:57:57.406Z,3.94
2019-02-05T06:58:57.125Z,3.86
2019-02-05T06:59:57.355Z,3.88
2019-02-05T07:00:57.093Z,3.89
2019-02-05T07:01:57.903Z,3.88
2019-02-05T07:02:57.930Z,3.88
2019-02-05T07:03:57.273Z,3.88
2019-02-05T07:04:57.234Z,3.85
2019-02-05T07:05:57.214Z,3.94
2019-02-05T07:06:57.187Z,3.86
2019-02-05T07:07:57.515Z,3.96
2019-02-05T07:08:57.589Z,3.96
2019-02-05T07:09:57.116Z,3.89
2019-02-05T07:10:57.387Z,3.9
2019-02-05T07:11:56.822Z,3.92
2019-02-05T07:12:57.118Z,3.89
2019-02-05T07:13:58.220Z,3.89
2019-02-05T07:14:57.010Z,3.89
2019-02-05T07:15:57.490Z,3.9
2019-02-05T07:16:58.043Z,3.9
2019-02-05T07:17:56.950Z,3.88
2019-02-05T07:18:56.676Z,3.9
2019-02-05T07:19:57.154Z,3.88
2019-02-05T07:20:57.140Z,3.96
2019-02-05T07:21:57.119Z,3.98
2019-02-05T07:22:58.330Z,3.97
2019-02-05T07:23:57.816Z,3.92
2019-02-05T07:24:57.043Z,3.92
2019-02-05T07:25:56.770Z,3.92
2019-02-05T07:26:57.017Z,3.97
2019-02-05T07:27:56.738Z,3.94
2019-02-05T07:29:06.054Z,3.94
2019-02-05T07:29:56.937Z,3.97
2019-02-05T07:30:56.663Z,3.98
2019-02-05T07:31:56.944Z,3.94
2019-02-05T07:32:56.647Z,3.96
2019-02-05T07:33:56.908Z,3.98
2019-02-05T07:34:56.583Z,3.96
2019-02-05T07:35:56.576Z,3.98
2019-02-05T07:36:56.531Z,3.96
2019-02-05T07:37:57.048Z,3.98
2019-02-05T07:38:56.505Z,3.96
2019-02-05T07:39:56.840Z,4.04
2019-02-05T07:40:56.491Z,3.98
2019-02-05T07:41:56.446Z,3.98
2019-02-05T07:42:56.679Z,3.98
2019-02-05T07:43:56.664Z,4
2019-02-05T07:44:56.788Z,3.97
2019-02-05T07:45:56.332Z,3.96
2019-02-05T07:46:56.306Z,3.97
2019-02-05T07:47:56.303Z,4.04
2019-02-05T07:48:56.520Z,3.98
2019-02-05T07:49:56.280Z,4.04
2019-02-05T07:50:56.091Z,4.04
2019-02-05T07:51:56.505Z,4.07
2019-02-05T07:52:56.741Z,4.06
2019-02-05T07:53:56.166Z,4.06
2019-02-05T07:54:56.159Z,4.06
2019-02-05T07:55:55.845Z,4.01
2019-02-05T07:56:56.092Z,4.08
2019-02-05T07:57:56.070Z,4.03
2019-02-05T07:58:55.854Z,3.92
2019-02-05T07:59:56.632Z,4.07
2019-02-05T08:00:56.258Z,4.03
2019-02-05T08:01:56.258Z,4.14
2019-02-05T08:02:56.229Z,3.97
2019-02-05T08:03:55.929Z,4.04
2019-02-05T08:04:55.930Z,4.12
2019-02-05T08:05:55.899Z,4.01
2019-02-05T08:06:56.667Z,4.04
2019-02-05T08:07:55.871Z,4.12
2019-02-05T08:08:55.829Z,4.1
2019-02-05T08:09:55.819Z,4.14
2019-02-05T08:10:55.544Z,4.12
2019-02-05T08:11:55.757Z,4.08
2019-02-05T08:12:55.764Z,4.18
2019-02-05T08:13:56.405Z,4.15
2019-02-05T08:14:55.453Z,4.08
2019-02-05T08:15:55.972Z,4.18
2019-02-05T08:16:55.664Z,4.22
2019-02-05T08:17:55.629Z,4.21
2019-02-05T08:18:55.606Z,4.24
2019-02-05T08:19:55.345Z,4.24
2019-02-05T08:20:56.282Z,4.22
2019-02-05T08:21:55.811Z,4.19
2019-02-05T08:22:55.291Z,4.21
2019-02-05T08:23:55.483Z,4.19
2019-02-05T08:24:55.739Z,4.22
2019-02-05T08:25:55.201Z,4.24
2019-02-05T08:26:55.693Z,4.24
2019-02-05T08:27:56.242Z,4.22
2019-02-05T08:28:55.647Z,4.32
2019-02-05T08:29:55.114Z,4.24
2019-02-05T08:30:55.342Z,4.24
2019-02-05T08:31:55.614Z,4.33
2019-02-05T08:32:55.301Z,4.25
2019-02-05T08:33:55.294Z,4.22
2019-02-05T08:34:55.821Z,4.32
2019-02-05T08:35:55.252Z,4.29
2019-02-05T08:36:55.230Z,4.19
2019-02-05T08:37:55.458Z,4.32
2019-02-05T08:38:55.435Z,4.32
2019-02-05T08:39:55.388Z,4.29
2019-02-05T08:40:55.131Z,4.39
2019-02-05T08:41:55.373Z,4.32
2019-02-05T08:42:55.724Z,4.24
2019-02-05T08:43:55.106Z,4.28
2019-02-05T08:44:54.783Z,4.24
2019-02-05T08:46:01.795Z,4.29
2019-02-05T08:46:55.000Z,4.34
2019-02-05T08:47:54.978Z,4.29
2019-02-05T08:48:54.731Z,4.34
2019-02-05T08:49:55.562Z,4.37
2019-02-05T08:50:54.649Z,4.42
2019-02-05T08:51:55.145Z,4.39
2019-02-05T08:52:54.864Z,4.34
2019-02-05T08:53:55.097Z,4.34
2019-02-05T08:54:55.087Z,4.32
2019-02-05T08:55:55.167Z,4.34
2019-02-05T08:56:55.335Z,4.4
2019-02-05T08:57:54.751Z,4.34
2019-02-05T08:58:55.006Z,4.39
2019-02-05T08:59:54.820Z,4.34
2019-02-05T09:00:54.858Z,4.36
2019-02-05T09:01:54.421Z,4.4
2019-02-05T09:02:54.646Z,4.37
2019-02-05T09:03:55.158Z,4.42
2019-02-05T09:04:55.126Z,4.42
2019-02-05T09:05:54.590Z,4.42
2019-02-05T09:06:54.573Z,4.46
2019-02-05T09:07:54.801Z,4.39
2019-02-05T09:08:54.774Z,4.44
2019-02-05T09:09:54.514Z,4.4
2019-02-05T09:10:54.483Z,4.39
2019-02-05T09:11:55.140Z,4.42
2019-02-05T09:12:54.705Z,4.4
2019-02-05T09:13:54.415Z,4.43
2019-02-05T09:14:54.656Z,4.44
2019-02-05T09:15:54.626Z,4.43
2019-02-05T09:16:54.360Z,4.43
2019-02-05T09:17:54.595Z,4.44
2019-02-05T09:18:54.830Z,4.51
2019-02-05T09:19:54.557Z,4.47
2019-02-05T09:20:54.539Z,4.55
2019-02-05T09:21:54.242Z,4.57
2019-02-05T09:22:54.223Z,4.58
2019-02-05T09:23:54.195Z,4.46
2019-02-05T09:24:54.222Z,4.58
2019-02-05T09:25:54.408Z,4.52
2019-02-05T09:26:54.481Z,4.61
2019-02-05T09:27:54.114Z,4.61
2019-02-05T09:28:57.095Z,4.58
2019-02-05T09:29:54.322Z,4.59
2019-02-05T09:30:54.035Z,4.61
2019-02-05T09:31:53.779Z,4.64
2019-02-05T09:32:54.267Z,4.58
2019-02-05T09:33:54.485Z,4.67
2019-02-05T09:34:54.213Z,4.64
2019-02-05T09:35:54.196Z,4.62
2019-02-05T09:36:54.190Z,4.64
2019-02-05T09:37:54.164Z,4.67
2019-02-05T09:38:53.897Z,4.67
2019-02-05T09:39:54.121Z,4.69
2019-02-05T09:40:53.914Z,4.59
2019-02-05T09:41:53.823Z,4.61
2019-02-05T09:42:54.055Z,4.64
2019-02-05T09:43:54.023Z,4.55
2019-02-05T09:44:53.990Z,4.62
2019-02-05T09:45:53.720Z,4.67
2019-02-05T09:46:53.696Z,4.65
2019-02-05T09:47:54.013Z,4.64
2019-02-05T09:48:54.218Z,4.7
2019-02-05T09:49:53.641Z,4.57
2019-02-05T09:50:53.874Z,4.7
2019-02-05T09:51:53.872Z,4.58
2019-02-05T09:52:53.424Z,4.73
2019-02-05T09:53:53.819Z,4.59
2019-02-05T09:54:53.537Z,4.59
2019-02-05T09:55:56.012Z,4.61
2019-02-05T09:56:53.743Z,4.67
2019-02-05T09:57:53.219Z,4.61
2019-02-05T09:58:53.698Z,4.65
2019-02-05T09:59:53.429Z,4.57
2019-02-05T10:00:53.667Z,4.73
2019-02-05T10:01:53.628Z,4.59
2019-02-05T10:02:53.862Z,4.73
2019-02-05T10:03:53.342Z,4.58
2019-02-05T10:04:53.333Z,4.67
2019-02-05T10:05:53.297Z,4.73
2019-02-05T10:06:54.813Z,4.76
2019-02-05T10:07:53.502Z,4.76
2019-02-05T10:08:53.242Z,4.76
2019-02-05T10:09:53.219Z,4.75
2019-02-05T10:10:53.767Z,4.62
2019-02-05T10:11:53.188Z,4.72
2019-02-05T10:12:52.941Z,4.77
2019-02-05T10:13:53.395Z,4.75
2019-02-05T10:14:53.361Z,4.72
2019-02-05T10:15:52.824Z,4.67
2019-02-05T10:16:53.308Z,4.73
2019-02-05T10:17:53.643Z,4.64
2019-02-05T10:18:52.797Z,4.73
2019-02-05T10:19:53.069Z,4.69
2019-02-05T10:20:53.461Z,4.67
2019-02-05T10:21:52.985Z,4.79
2019-02-05T10:22:53.088Z,4.75
2019-02-05T10:23:53.202Z,4.77
2019-02-05T10:24:54.617Z,4.72
2019-02-05T10:25:52.892Z,4.72
2019-02-05T10:26:52.617Z,4.8
2019-02-05T10:27:52.834Z,4.79
2019-02-05T10:28:52.830Z,4.7
2019-02-05T10:30:03.916Z,4.8
2019-02-05T10:30:52.763Z,4.79
2019-02-05T10:31:53.012Z,4.73
2019-02-05T10:32:55.502Z,4.84
2019-02-05T10:33:59.808Z,4.86
2019-02-05T10:34:52.942Z,4.77
2019-02-05T10:35:52.661Z,4.79
2019-02-05T10:36:52.626Z,4.84
2019-02-05T10:37:52.876Z,4.8
2019-02-05T10:38:52.592Z,4.79
2019-02-05T10:39:53.056Z,4.72
2019-02-05T10:40:52.829Z,4.86
2019-02-05T10:41:52.516Z,4.86
2019-02-05T10:42:52.870Z,4.86
2019-02-05T10:43:52.735Z,4.88
2019-02-05T10:44:52.763Z,4.86
2019-02-05T10:45:52.560Z,4.91
2019-02-05T10:46:52.853Z,4.86
2019-02-05T10:47:52.432Z,4.76
2019-02-05T10:48:52.392Z,4.84
2019-02-05T10:49:52.363Z,4.77
2019-02-05T10:50:52.348Z,4.92
2019-02-05T10:51:52.353Z,4.88
2019-02-05T10:52:52.559Z,4.86
2019-02-05T10:53:52.760Z,4.88
2019-02-05T10:54:52.990Z,4.84
2019-02-05T10:55:52.501Z,4.89
2019-02-05T10:56:52.234Z,4.8
2019-02-05T10:57:52.189Z,4.86
2019-02-05T10:58:52.163Z,4.88
2019-02-05T10:59:54.385Z,4.84
2019-02-05T11:00:51.885Z,4.88
2019-02-05T11:01:52.863Z,4.88
2019-02-05T11:02:52.170Z,4.95
2019-02-05T11:03:52.080Z,4.96
2019-02-05T11:04:51.786Z,4.88
2019-02-05T11:05:52.034Z,4.96
2019-02-05T11:06:52.275Z,4.94
2019-02-05T11:07:52.251Z,4.96
2019-02-05T11:08:52.353Z,4.98
2019-02-05T11:09:52.014Z,5.04
2019-02-05T11:10:52.186Z,5.05
2019-02-05T11:11:52.164Z,4.96
2019-02-05T11:12:51.905Z,4.99
2019-02-05T11:13:51.873Z,5.05
2019-02-05T11:14:51.872Z,4.96
2019-02-05T11:15:51.721Z,5.07
2019-02-05T11:16:52.303Z,5.04
2019-02-05T11:17:52.236Z,5.02
2019-02-05T11:18:51.746Z,5.07
2019-02-05T11:19:51.984Z,5.04
2019-02-05T11:20:51.733Z,5.01
2019-02-05T11:21:51.940Z,5.09
2019-02-05T11:22:51.912Z,5.05
2019-02-05T11:23:52.571Z,5.12
2019-02-05T11:24:51.668Z,5.05
2019-02-05T11:25:51.636Z,5.14
2019-02-05T11:26:51.334Z,5.13
2019-02-05T11:27:51.588Z,5.1
2019-02-05T11:28:51.809Z,5.17
2019-02-05T11:29:51.780Z,5.16
2019-02-05T11:30:51.995Z,5.2
2019-02-05T11:31:51.492Z,5.13
2019-02-05T11:32:52.943Z,5.12
2019-02-05T11:33:51.750Z,5.17
2019-02-05T11:34:51.160Z,5.16
2019-02-05T11:35:51.152Z,5.14
2019-02-05T11:36:51.408Z,5.14
2019-02-05T11:37:51.348Z,5.2
2019-02-05T11:38:52.227Z,5.22
2019-02-05T11:39:51.057Z,5.16
2019-02-05T11:40:51.554Z,5.17
2019-02-05T11:41:51.268Z,5.19
2019-02-05T11:42:51.049Z,5.17
2019-02-05T11:43:51.500Z,5.17
2019-02-05T11:44:51.206Z,5.16
2019-02-05T11:45:51.628Z,5.1
2019-02-05T11:46:51.182Z,5.14
2019-02-05T11:47:51.397Z,5.23
2019-02-05T11:48:51.161Z,5.23
2019-02-05T11:49:51.349Z,5.23
2019-02-05T11:50:50.876Z,5.19
2019-02-05T11:51:51.326Z,5.22
2019-02-05T11:52:51.646Z,5.31
2019-02-05T11:53:50.755Z,5.32
2019-02-05T11:54:50.751Z,5.37
2019-02-05T11:55:50.715Z,5.38
2019-02-05T11:56:51.200Z,5.34
2019-02-05T11:57:50.952Z,5.27
2019-02-05T11:58:50.911Z,5.34
2019-02-05T11:59:51.139Z,5.3
2019-02-05T12:00:51.495Z,5.32
2019-02-05T12:01:50.590Z,5.43
2019-02-05T12:02:53.810Z,5.4
2019-02-05T12:03:50.925Z,5.4
2019-02-05T12:04:50.786Z,5.45
2019-02-05T12:05:50.807Z,5.45
2019-02-05T12:06:51.020Z,5.43
2019-02-05T12:07:51.062Z,5.41
2019-02-05T12:08:50.704Z,5.45
2019-02-05T12:09:50.714Z,5.46
2019-02-05T12:10:50.913Z,5.45
2019-02-05T12:11:50.657Z,5.48
2019-02-05T12:12:50.884Z,5.49
2019-02-05T12:13:50.387Z,5.41
2019-02-05T12:14:52.748Z,5.41
2019-02-05T12:15:50.586Z,5.43
2019-02-05T12:16:50.829Z,5.49
2019-02-05T12:17:50.527Z,5.57
2019-02-05T12:18:50.768Z,5.55
2019-02-05T12:19:50.749Z,5.57
2019-02-05T12:20:50.721Z,5.59
2019-02-05T12:21:50.851Z,5.59
2019-02-05T12:22:50.776Z,5.49
2019-02-05T12:23:50.398Z,5.56
2019-02-05T12:24:50.664Z,5.56
2019-02-05T12:25:50.095Z,5.57
2019-02-05T12:26:50.350Z,5.56
2019-02-05T12:27:50.052Z,5.6
2019-02-05T12:28:50.550Z,5.59
2019-02-05T12:29:50.791Z,5.57
2019-02-05T12:30:50.379Z,5.56
2019-02-05T12:31:50.244Z,5.6
2019-02-05T12:32:50.467Z,5.56
2019-02-05T12:33:50.189Z,5.55
2019-02-05T12:34:50.155Z,5.57
2019-02-05T12:35:50.402Z,5.5
2019-02-05T12:36:50.411Z,5.59
2019-02-05T12:37:50.107Z,5.6
2019-02-05T12:38:50.071Z,5.53
2019-02-05T12:39:50.061Z,5.56
2019-02-05T12:40:50.303Z,5.57
2019-02-05T12:41:50.290Z,5.57
2019-02-05T12:42:49.996Z,5.6
2019-02-05T12:43:49.973Z,5.59
2019-02-05T12:44:50.604Z,5.66
2019-02-05T12:45:49.683Z,5.59
2019-02-05T12:46:49.931Z,5.56
2019-02-05T12:47:49.932Z,5.64
2019-02-05T12:48:49.871Z,5.57
2019-02-05T12:49:50.106Z,5.64
2019-02-05T12:50:49.842Z,5.75
2019-02-05T12:51:50.178Z,5.7
2019-02-05T12:52:50.039Z,5.68
2019-02-05T12:53:49.768Z,5.67
2019-02-05T12:54:50.011Z,5.67
2019-02-05T12:55:49.987Z,5.7
2019-02-05T12:56:49.971Z,5.73
2019-02-05T12:57:49.690Z,5.74
2019-02-05T12:58:49.923Z,5.81
2019-02-05T12:59:50.187Z,5.81
2019-02-05T13:01:03.528Z,5.77
2019-02-05T13:01:49.847Z,5.74
2019-02-05T13:02:49.321Z,5.67
2019-02-05T13:03:49.549Z,5.7
2019-02-05T13:04:49.537Z,5.78
2019-02-05T13:05:49.517Z,5.75
2019-02-05T13:06:50.029Z,5.71
2019-02-05T13:07:49.677Z,5.78
2019-02-05T13:08:49.456Z,5.75
2019-02-05T13:09:49.181Z,5.71
2019-02-05T13:10:49.672Z,5.74
2019-02-05T13:11:49.708Z,5.77
2019-02-05T13:12:49.379Z,5.75
2019-02-05T13:13:49.376Z,5.78
2019-02-05T13:14:49.838Z,5.75
2019-02-05T13:15:49.322Z,5.81
2019-02-05T13:16:49.147Z,5.78
2019-02-05T13:17:49.767Z,5.77
2019-02-05T13:18:51.859Z,5.83
2019-02-05T13:19:49.595Z,5.86
2019-02-05T13:20:49.318Z,5.78
2019-02-05T13:21:49.770Z,5.81